createdAt,value
2022-12-24T00:01:05.673Z,5.60
2022-12-24T00:03:39.670Z,5.70
2022-12-24T00:06:20.487Z,5.70
2022-12-24T00:08:54.037Z,5.70
2022-12-24T00:11:28.077Z,5.70
2022-12-24T00:13:57.625Z,5.60
2022-12-24T00:16:26.886Z,5.60
2022-12-24T00:18:56.048Z,5.60
2022-12-24T00:21:25.213Z,5.70
2022-12-24T00:23:56.054Z,5.70
2022-12-24T00:26:25.291Z,5.70
2022-12-24T00:28:54.669Z,5.70
2022-12-24T00:31:24.038Z,5.80
2022-12-24T00:33:53.406Z,5.80
2022-12-24T00:36:31.272Z,5.80
2022-12-24T00:39:01.749Z,5.70
2022-12-24T00:41:30.521Z,5.70
2022-12-24T00:44:01.441Z,5.70
2022-12-24T00:46:33.134Z,5.70
2022-12-24T00:49:03.218Z,5.70
2022-12-24T00:51:32.831Z,5.70
2022-12-24T00:54:03.572Z,5.70
2022-12-24T00:56:32.830Z,5.70
2022-12-24T00:59:01.897Z,5.70
2022-12-24T01:01:30.760Z,5.70
2022-12-24T01:04:13.643Z,5.70
2022-12-24T01:06:44.731Z,5.60
2022-12-24T01:09:15.193Z,5.70
2022-12-24T01:11:44.311Z,5.70
2022-12-24T01:14:13.033Z,5.70
2022-12-24T01:16:42.071Z,5.70
2022-12-24T01:19:11.233Z,5.70
2022-12-24T01:21:40.203Z,5.70
2022-12-24T01:24:09.183Z,5.60
2022-12-24T01:26:42.552Z,5.60
2022-12-24T01:29:11.703Z,5.70
2022-12-24T01:31:40.755Z,5.70
2022-12-24T01:34:09.718Z,5.60
2022-12-24T01:36:41.456Z,5.70
2022-12-24T01:39:10.449Z,5.80
2022-12-24T01:41:58.111Z,5.80
2022-12-24T01:44:33.499Z,5.70
2022-12-24T01:47:11.017Z,5.60
2022-12-24T01:49:43.681Z,5.60
2022-12-24T01:52:17.663Z,5.50
2022-12-24T01:54:49.521Z,5.50
2022-12-24T01:57:24.461Z,5.60
2022-12-24T01:59:58.075Z,5.50
2022-12-24T02:02:27.607Z,5.50
2022-12-24T02:05:02.832Z,5.40
2022-12-24T02:07:32.486Z,5.50
2022-12-24T02:10:03.109Z,5.40
2022-12-24T02:12:36.043Z,5.40
2022-12-24T02:15:05.491Z,5.50
2022-12-24T02:17:40.822Z,5.50
2022-12-24T02:20:51.164Z,5.50
2022-12-24T02:24:02.954Z,5.50
2022-12-24T02:26:50.019Z,5.40
2022-12-24T02:29:39.477Z,5.50
2022-12-24T02:32:16.072Z,5.50
2022-12-24T02:34:51.005Z,5.50
2022-12-24T02:37:27.209Z,5.50
2022-12-24T02:40:01.081Z,5.50
2022-12-24T02:42:39.578Z,5.60
2022-12-24T02:45:12.389Z,5.60
2022-12-24T02:47:45.401Z,5.60
2022-12-24T02:50:16.118Z,5.60
2022-12-24T02:52:46.673Z,5.60
2022-12-24T02:55:19.477Z,5.70
2022-12-24T02:58:03.066Z,5.70
2022-12-24T03:00:44.860Z,5.70
2022-12-24T03:03:32.465Z,5.70
2022-12-24T03:06:11.145Z,5.70
2022-12-24T03:08:48.717Z,5.70
2022-12-24T03:11:17.849Z,5.60
2022-12-24T03:13:47.020Z,5.60
2022-12-24T03:16:19.738Z,5.60
2022-12-24T03:18:52.335Z,5.60
2022-12-24T03:21:25.608Z,5.60
2022-12-24T03:23:54.528Z,5.60
2022-12-24T03:26:24.566Z,5.70
2022-12-24T03:28:54.208Z,5.70
2022-12-24T03:31:25.983Z,5.60
2022-12-24T03:33:56.191Z,5.60
2022-12-24T03:36:25.758Z,5.60
2022-12-24T03:38:54.372Z,5.50
2022-12-24T03:41:22.973Z,5.60
2022-12-24T03:43:51.655Z,5.60
2022-12-24T03:46:20.354Z,5.60
2022-12-24T03:48:49.080Z,5.60
2022-12-24T03:51:21.833Z,5.50
2022-12-24T03:53:50.572Z,5.50
2022-12-24T03:56:19.337Z,5.60
2022-12-24T03:58:48.658Z,5.60
2022-12-24T04:01:17.756Z,5.60
2022-12-24T04:03:47.038Z,5.60
2022-12-24T04:06:18.107Z,5.60
2022-12-24T04:08:48.208Z,5.60
2022-12-24T04:11:19.713Z,5.70
2022-12-24T04:13:48.380Z,5.60
2022-12-24T04:16:18.350Z,5.60
2022-12-24T04:18:47.016Z,5.60
2022-12-24T04:21:15.821Z,5.70
2022-12-24T04:23:44.952Z,5.60
2022-12-24T04:26:15.150Z,5.60
2022-12-24T04:28:44.502Z,5.60
2022-12-24T04:31:16.047Z,5.50
2022-12-24T04:33:46.196Z,5.50
2022-12-24T04:36:17.259Z,5.50
2022-12-24T04:38:46.756Z,5.50
2022-12-24T04:41:23.103Z,5.50
2022-12-24T04:43:53.803Z,5.50
2022-12-24T04:46:25.406Z,5.50
2022-12-24T04:48:55.355Z,5.50
2022-12-24T04:51:25.597Z,5.60
2022-12-24T04:53:54.786Z,5.50
2022-12-24T04:56:26.606Z,5.60
2022-12-24T04:58:56.251Z,5.50
2022-12-24T05:01:26.940Z,5.50
2022-12-24T05:03:56.476Z,5.50
2022-12-24T05:06:27.410Z,5.50
2022-12-24T05:08:56.956Z,5.50
2022-12-24T05:11:27.491Z,5.50
2022-12-24T05:13:56.235Z,5.50
2022-12-24T05:16:26.283Z,5.50
2022-12-24T05:18:55.447Z,5.40
2022-12-24T05:21:26.169Z,5.40
2022-12-24T05:24:09.089Z,5.40
2022-12-24T05:26:42.899Z,5.40
2022-12-24T05:29:13.514Z,5.40
2022-12-24T05:31:43.767Z,5.30
2022-12-24T05:34:12.811Z,5.30
2022-12-24T05:36:41.693Z,5.40
2022-12-24T05:39:15.756Z,5.40
2022-12-24T05:41:47.157Z,5.40
2022-12-24T05:44:16.444Z,5.40
2022-12-24T05:46:45.633Z,5.40
2022-12-24T05:49:14.528Z,5.40
2022-12-24T05:51:43.317Z,5.40
2022-12-24T05:54:12.308Z,5.40
2022-12-24T05:56:41.045Z,5.40
2022-12-24T05:59:11.172Z,5.40
2022-12-24T06:01:39.983Z,5.40
2022-12-24T06:04:08.789Z,5.40
2022-12-24T06:06:37.434Z,5.30
2022-12-24T06:09:06.052Z,5.30
2022-12-24T06:11:35.050Z,5.30
2022-12-24T06:14:03.769Z,5.30
2022-12-24T06:16:33.865Z,5.30
2022-12-24T06:19:02.566Z,5.30
2022-12-24T06:21:31.251Z,5.40
2022-12-24T06:23:59.979Z,5.30
2022-12-24T06:26:28.630Z,5.30
2022-12-24T06:28:57.305Z,5.30
2022-12-24T06:31:26.226Z,5.40
2022-12-24T06:33:56.310Z,5.40
2022-12-24T06:36:26.360Z,5.40
2022-12-24T06:38:56.076Z,5.30
2022-12-24T06:41:24.795Z,5.30
2022-12-24T06:43:54.353Z,5.30
2022-12-24T06:46:27.246Z,5.30
2022-12-24T06:48:57.449Z,5.30
2022-12-24T06:51:26.132Z,5.30
2022-12-24T06:53:55.327Z,5.30
2022-12-24T06:56:23.974Z,5.30
2022-12-24T06:58:52.671Z,5.40
2022-12-24T07:01:24.581Z,5.40
2022-12-24T07:03:53.262Z,5.40
2022-12-24T07:06:27.047Z,5.30
2022-12-24T07:08:55.965Z,5.40
2022-12-24T07:11:26.138Z,5.40
2022-12-24T07:13:54.984Z,5.40
2022-12-24T07:16:23.659Z,5.40
2022-12-24T07:18:52.544Z,5.40
2022-12-24T07:21:22.619Z,5.40
2022-12-24T07:23:51.509Z,5.40
2022-12-24T07:26:20.234Z,5.40
2022-12-24T07:28:49.129Z,5.40
2022-12-24T07:31:18.099Z,5.40
2022-12-24T07:33:52.496Z,5.40
2022-12-24T07:36:24.843Z,5.50
2022-12-24T07:38:53.872Z,5.50
2022-12-24T07:41:22.885Z,5.50
2022-12-24T07:43:51.813Z,5.50
2022-12-24T07:46:21.785Z,5.40
2022-12-24T07:49:01.623Z,5.40
2022-12-24T07:51:31.756Z,5.40
2022-12-24T07:54:01.412Z,5.40
2022-12-24T07:56:30.071Z,5.50
2022-12-24T07:58:58.875Z,5.50
2022-12-24T08:01:27.586Z,5.50
2022-12-24T08:03:56.598Z,5.50
2022-12-24T08:06:25.621Z,5.50
2022-12-24T08:08:56.433Z,5.40
2022-12-24T08:11:25.060Z,5.50
2022-12-24T08:13:53.802Z,5.50
2022-12-24T08:16:22.544Z,5.50
2022-12-24T08:18:51.141Z,5.50
2022-12-24T08:21:20.283Z,5.40
2022-12-24T08:23:49.202Z,5.50
2022-12-24T08:26:19.205Z,5.50
2022-12-24T08:28:48.016Z,5.50
2022-12-24T08:31:17.167Z,5.60
2022-12-24T08:33:45.787Z,5.60
2022-12-24T08:36:14.368Z,5.70
2022-12-24T08:38:42.903Z,5.70
2022-12-24T08:41:11.492Z,5.70
2022-12-24T08:43:41.607Z,5.70
2022-12-24T08:46:11.290Z,5.70
2022-12-24T08:48:39.887Z,5.80
2022-12-24T08:51:10.013Z,5.80
2022-12-24T08:53:38.806Z,5.80
2022-12-24T08:56:09.725Z,5.80
2022-12-24T08:58:39.174Z,5.80
2022-12-24T09:01:15.709Z,5.80
2022-12-24T09:03:44.650Z,5.70
2022-12-24T09:06:13.739Z,5.70
2022-12-24T09:08:42.353Z,5.70
2022-12-24T09:11:13.026Z,5.80
2022-12-24T09:13:42.134Z,5.90
2022-12-24T09:16:12.964Z,5.90
2022-12-24T09:18:42.127Z,5.90
2022-12-24T09:21:14.542Z,5.90
2022-12-24T09:23:44.255Z,5.90
2022-12-24T09:26:16.580Z,6.00
2022-12-24T09:28:45.529Z,6.00
2022-12-24T09:31:16.827Z,6.00
2022-12-24T09:33:48.423Z,5.90
2022-12-24T09:36:17.073Z,5.90
2022-12-24T09:38:46.464Z,5.90
2022-12-24T09:41:16.739Z,6.00
2022-12-24T09:43:50.700Z,6.00
2022-12-24T09:46:26.677Z,5.90
2022-12-24T09:48:59.341Z,6.00
2022-12-24T09:51:33.360Z,5.90
2022-12-24T09:54:05.571Z,6.00
2022-12-24T09:56:40.186Z,6.00
2022-12-24T09:59:14.997Z,5.90
2022-12-24T10:01:45.222Z,5.90
2022-12-24T10:04:16.982Z,5.90
2022-12-24T10:06:53.416Z,5.90
2022-12-24T10:09:31.321Z,5.90
2022-12-24T10:12:10.963Z,5.90
2022-12-24T10:14:56.019Z,5.90
2022-12-24T10:17:39.822Z,5.90
2022-12-24T10:20:38.718Z,5.90
2022-12-24T10:23:15.632Z,5.90
2022-12-24T10:25:51.336Z,5.90
2022-12-24T10:28:23.260Z,5.90
2022-12-24T10:30:56.831Z,6.00
2022-12-24T10:33:33.745Z,6.00
2022-12-24T10:36:06.781Z,6.00
2022-12-24T10:38:38.718Z,6.00
2022-12-24T10:41:08.906Z,6.00
2022-12-24T10:43:40.252Z,6.00
2022-12-24T10:46:18.282Z,6.00
2022-12-24T10:48:53.298Z,6.00
2022-12-24T10:51:27.117Z,5.90
2022-12-24T10:54:02.011Z,5.90
2022-12-24T10:56:30.651Z,5.80
2022-12-24T10:58:59.303Z,5.70
2022-12-24T11:01:46.477Z,5.60
2022-12-24T11:04:21.321Z,5.60
2022-12-24T11:07:01.460Z,5.60
2022-12-24T11:09:32.420Z,5.50
2022-12-24T11:12:08.616Z,5.50
2022-12-24T11:14:40.398Z,5.50
2022-12-24T11:17:09.424Z,5.50
2022-12-24T11:19:41.055Z,5.50
2022-12-24T11:22:19.391Z,5.50
2022-12-24T11:24:50.219Z,5.50
2022-12-24T11:27:41.396Z,5.40
2022-12-24T11:30:26.262Z,5.40
2022-12-24T11:33:21.649Z,5.40
2022-12-24T11:36:08.542Z,5.40
2022-12-24T11:38:38.329Z,5.50
2022-12-24T11:41:09.408Z,5.40
2022-12-24T11:43:48.126Z,5.50
2022-12-24T11:46:20.715Z,5.50
2022-12-24T11:48:50.190Z,5.50
2022-12-24T11:51:25.840Z,5.60
2022-12-24T11:54:03.606Z,5.60
2022-12-24T11:56:38.332Z,5.60
2022-12-24T11:59:18.319Z,5.60
2022-12-24T12:01:54.887Z,5.70
2022-12-24T12:04:26.279Z,5.80
2022-12-24T12:07:00.526Z,5.90
2022-12-24T12:09:32.087Z,5.90
2022-12-24T12:12:06.549Z,6.00
2022-12-24T12:14:38.420Z,6.00
2022-12-24T12:17:20.323Z,6.00
2022-12-24T12:19:54.720Z,6.00
2022-12-24T12:22:36.652Z,6.00
2022-12-24T12:25:08.205Z,6.10
2022-12-24T12:27:41.241Z,6.10
2022-12-24T12:30:18.141Z,6.20
2022-12-24T12:32:53.887Z,6.20
2022-12-24T12:35:27.424Z,6.30
2022-12-24T12:38:03.595Z,6.20
2022-12-24T12:40:54.669Z,6.10
2022-12-24T12:43:37.317Z,6.10
2022-12-24T12:46:15.503Z,6.10
2022-12-24T12:49:09.383Z,6.00
2022-12-24T12:51:44.127Z,6.00
2022-12-24T12:54:41.883Z,6.00
2022-12-24T12:57:16.540Z,5.90
2022-12-24T12:59:51.503Z,5.80
2022-12-24T13:02:42.369Z,5.80
2022-12-24T13:05:49.809Z,5.80
2022-12-24T13:08:53.067Z,5.70
2022-12-24T13:11:42.134Z,5.70
2022-12-24T13:14:49.008Z,5.70
2022-12-24T13:17:42.908Z,5.60
2022-12-24T13:20:22.668Z,5.60
2022-12-24T13:22:55.823Z,5.60
2022-12-24T13:25:28.371Z,5.60
2022-12-24T13:28:22.841Z,5.60
2022-12-24T13:30:58.412Z,5.60
2022-12-24T13:33:48.660Z,5.50
2022-12-24T13:36:20.541Z,5.50
2022-12-24T13:38:50.153Z,5.50
2022-12-24T13:41:57.746Z,5.50
2022-12-24T13:44:37.124Z,5.50
2022-12-24T13:47:32.029Z,5.50
2022-12-24T13:50:22.765Z,5.40
2022-12-24T13:52:54.610Z,5.50
2022-12-24T13:55:24.422Z,5.40
2022-12-24T13:57:59.621Z,5.40
2022-12-24T14:00:39.470Z,5.40
2022-12-24T14:03:24.509Z,5.40
2022-12-24T14:05:56.841Z,5.50
2022-12-24T14:08:36.881Z,5.50
2022-12-24T14:11:10.320Z,5.50
2022-12-24T14:14:13.373Z,5.50
2022-12-24T14:16:52.638Z,5.20
2022-12-24T14:19:24.202Z,5.10
2022-12-24T14:22:00.850Z,5.00
2022-12-24T14:24:35.620Z,5.00
2022-12-24T14:27:16.254Z,4.90
2022-12-24T14:29:55.317Z,4.90
2022-12-24T14:32:25.390Z,4.80
2022-12-24T14:35:08.381Z,4.80
2022-12-24T14:37:37.361Z,4.70
2022-12-24T14:40:07.992Z,4.70
2022-12-24T14:42:43.501Z,4.60
2022-12-24T14:45:26.657Z,4.70
2022-12-24T14:48:05.822Z,4.60
2022-12-24T14:51:08.340Z,4.60
2022-12-24T14:54:06.023Z,4.50
2022-12-24T14:56:34.781Z,4.50
2022-12-24T14:59:16.914Z,4.40
2022-12-24T15:01:46.457Z,4.40
2022-12-24T15:04:19.519Z,4.40
2022-12-24T15:06:50.820Z,4.40
2022-12-24T15:09:21.650Z,4.30
2022-12-24T15:11:53.067Z,4.30
2022-12-24T15:14:23.256Z,4.40
2022-12-24T15:16:57.648Z,4.40
2022-12-24T15:19:30.482Z,4.40
2022-12-24T15:21:59.345Z,4.40
2022-12-24T15:24:32.507Z,4.40
2022-12-24T15:27:03.243Z,4.40
2022-12-24T15:29:33.524Z,4.40
2022-12-24T15:32:05.046Z,4.30
2022-12-24T15:34:40.186Z,4.40
2022-12-24T15:37:14.163Z,4.40
2022-12-24T15:39:43.457Z,4.40
2022-12-24T15:42:18.798Z,4.40
2022-12-24T15:44:58.561Z,4.40
2022-12-24T15:47:30.861Z,4.40
2022-12-24T15:50:00.985Z,4.40
2022-12-24T15:52:30.140Z,4.30
2022-12-24T15:54:58.972Z,4.30
2022-12-24T15:57:33.053Z,4.30
2022-12-24T16:00:05.555Z,4.30
2022-12-24T16:02:40.434Z,4.30
2022-12-24T16:05:34.676Z,4.30
2022-12-24T16:08:33.982Z,4.20
2022-12-24T16:11:13.089Z,4.30
2022-12-24T16:13:44.409Z,4.30
2022-12-24T16:16:15.593Z,4.30
2022-12-24T16:18:53.047Z,4.30
2022-12-24T16:21:27.122Z,4.30
2022-12-24T16:23:57.819Z,4.30
2022-12-24T16:26:29.508Z,4.20
2022-12-24T16:28:58.270Z,4.20
2022-12-24T16:31:32.411Z,4.20
2022-12-24T16:34:02.533Z,4.20
2022-12-24T16:36:33.684Z,4.20
2022-12-24T16:39:20.082Z,4.20
2022-12-24T16:42:06.409Z,4.20
2022-12-24T16:44:35.017Z,4.20
2022-12-24T16:47:03.680Z,4.20
2022-12-24T16:49:32.380Z,4.20
2022-12-24T16:52:02.529Z,4.30
2022-12-24T16:54:31.189Z,4.20
2022-12-24T16:56:59.905Z,4.20
2022-12-24T16:59:28.535Z,4.20
2022-12-24T17:01:59.242Z,4.30
2022-12-24T17:04:27.978Z,4.20
2022-12-24T17:06:56.642Z,4.20
2022-12-24T17:09:28.033Z,4.20
2022-12-24T17:11:59.016Z,4.20
2022-12-24T17:14:27.888Z,4.10
2022-12-24T17:16:56.782Z,4.10
2022-12-24T17:19:25.355Z,4.10
2022-12-24T17:21:55.251Z,4.10
2022-12-24T17:24:23.881Z,4.10
2022-12-24T17:26:54.168Z,4.10
2022-12-24T17:29:22.916Z,4.00
2022-12-24T17:31:51.672Z,4.00
2022-12-24T17:34:20.415Z,4.00
2022-12-24T17:36:49.076Z,4.00
2022-12-24T17:39:22.374Z,4.10
2022-12-24T17:41:58.152Z,4.10
2022-12-24T17:44:26.795Z,4.10
2022-12-24T17:46:55.711Z,4.00
2022-12-24T17:49:24.561Z,4.00
2022-12-24T17:51:53.235Z,4.00
2022-12-24T17:54:21.993Z,4.00
2022-12-24T17:56:50.567Z,4.00
2022-12-24T17:59:20.584Z,3.90
2022-12-24T18:01:49.244Z,4.00
2022-12-24T18:04:18.051Z,3.90
2022-12-24T18:06:49.652Z,3.90
2022-12-24T18:09:18.750Z,3.90
2022-12-24T18:11:47.345Z,4.00
2022-12-24T18:14:15.991Z,4.00
2022-12-24T18:16:46.311Z,4.00
2022-12-24T18:19:14.978Z,4.00
2022-12-24T18:21:43.527Z,4.00
2022-12-24T18:24:13.381Z,3.90
2022-12-24T18:26:42.219Z,4.00
2022-12-24T18:29:11.417Z,4.00
2022-12-24T18:31:40.501Z,4.00
2022-12-24T18:34:14.519Z,4.00
2022-12-24T18:36:43.332Z,4.00
2022-12-24T18:39:11.948Z,4.00
2022-12-24T18:41:40.845Z,4.00
2022-12-24T18:44:10.894Z,4.00
2022-12-24T18:46:39.531Z,4.00
2022-12-24T18:49:11.815Z,4.10
2022-12-24T18:51:40.396Z,4.00
2022-12-24T18:54:09.025Z,4.00
2022-12-24T18:56:37.595Z,4.00
2022-12-24T18:59:06.355Z,4.00
2022-12-24T19:01:36.500Z,4.00
2022-12-24T19:04:05.286Z,4.00
2022-12-24T19:06:35.400Z,3.90
2022-12-24T19:09:04.680Z,3.90
2022-12-24T19:11:34.530Z,3.90
2022-12-24T19:14:04.425Z,3.90
2022-12-24T19:16:36.339Z,3.90
2022-12-24T19:19:06.521Z,3.90
2022-12-24T19:21:37.379Z,3.90
2022-12-24T19:24:07.761Z,3.90
2022-12-24T19:26:36.424Z,3.90
2022-12-24T19:29:05.066Z,3.90
2022-12-24T19:31:33.759Z,3.90
2022-12-24T19:34:02.507Z,4.00
2022-12-24T19:36:32.040Z,4.00
2022-12-24T19:39:04.939Z,4.00
2022-12-24T19:41:33.792Z,4.00
2022-12-24T19:44:03.246Z,4.00
2022-12-24T19:46:33.858Z,4.00
2022-12-24T19:49:05.322Z,4.00
2022-12-24T19:51:34.586Z,4.00
2022-12-24T19:54:06.407Z,4.00
2022-12-24T19:56:35.267Z,4.00
2022-12-24T19:59:04.387Z,4.00
2022-12-24T20:01:34.205Z,4.00
2022-12-24T20:04:03.667Z,4.00
2022-12-24T20:06:34.315Z,4.00
2022-12-24T20:09:06.961Z,4.00
2022-12-24T20:11:36.609Z,4.00
2022-12-24T20:14:07.546Z,3.90
2022-12-24T20:16:37.012Z,4.00
2022-12-24T20:19:07.400Z,4.00
2022-12-24T20:21:36.069Z,4.00
2022-12-24T20:24:06.856Z,4.00
2022-12-24T20:26:35.758Z,4.10
2022-12-24T20:29:05.830Z,4.00
2022-12-24T20:31:35.088Z,3.90
2022-12-24T20:34:05.490Z,4.00
2022-12-24T20:36:34.307Z,4.00
2022-12-24T20:39:03.202Z,4.00
2022-12-24T20:41:35.431Z,4.00
2022-12-24T20:44:04.802Z,4.00
2022-12-24T20:46:33.975Z,4.00
2022-12-24T20:49:02.804Z,3.90
2022-12-24T20:51:33.005Z,3.90
2022-12-24T20:54:02.371Z,4.00
2022-12-24T20:56:32.950Z,4.00
2022-12-24T20:59:02.833Z,4.00
2022-12-24T21:01:34.904Z,4.00
2022-12-24T21:04:08.354Z,4.00
2022-12-24T21:06:38.357Z,4.00
2022-12-24T21:09:10.080Z,4.00
2022-12-24T21:11:59.976Z,4.00
2022-12-24T21:14:29.074Z,4.00
2022-12-24T21:16:57.720Z,3.90
2022-12-24T21:19:27.140Z,4.00
2022-12-24T21:21:56.245Z,3.90
2022-12-24T21:24:24.923Z,3.90
2022-12-24T21:26:54.832Z,3.90
2022-12-24T21:29:23.463Z,4.00
2022-12-24T21:31:52.130Z,4.00
2022-12-24T21:34:20.771Z,3.90
2022-12-24T21:36:49.385Z,3.80
2022-12-24T21:39:17.996Z,3.80
2022-12-24T21:41:46.619Z,3.80
2022-12-24T21:44:30.145Z,3.90
2022-12-24T21:47:04.349Z,3.90
2022-12-24T21:49:51.687Z,3.90
2022-12-24T21:52:20.438Z,3.90
2022-12-24T21:54:53.606Z,3.90
2022-12-24T21:57:40.072Z,3.80
2022-12-24T22:00:24.691Z,3.90
2022-12-24T22:02:56.134Z,3.90
2022-12-24T22:05:26.291Z,3.90
2022-12-24T22:08:12.929Z,3.90
2022-12-24T22:10:59.154Z,3.90
2022-12-24T22:13:28.806Z,3.90
2022-12-24T22:15:59.201Z,3.90
2022-12-24T22:18:28.243Z,3.80
2022-12-24T22:20:57.469Z,3.90
2022-12-24T22:23:26.193Z,3.90
2022-12-24T22:25:55.018Z,3.90
2022-12-24T22:28:23.689Z,3.90
2022-12-24T22:30:52.630Z,3.90
2022-12-24T22:33:22.893Z,3.90
2022-12-24T22:35:51.916Z,4.00
2022-12-24T22:38:20.652Z,3.90
2022-12-24T22:40:49.688Z,4.00
2022-12-24T22:43:18.240Z,4.00
2022-12-24T22:45:46.899Z,4.00
2022-12-24T22:48:16.168Z,4.00
2022-12-24T22:50:46.246Z,4.00
2022-12-24T22:53:14.779Z,4.00
2022-12-24T22:55:43.517Z,4.00
2022-12-24T22:58:12.059Z,4.00
2022-12-24T23:00:43.470Z,3.90
2022-12-24T23:03:13.047Z,4.00
2022-12-24T23:05:41.901Z,4.00
2022-12-24T23:08:13.317Z,4.00
2022-12-24T23:10:42.469Z,4.00
2022-12-24T23:13:31.430Z,4.00
2022-12-24T23:16:03.602Z,4.00
2022-12-24T23:18:32.628Z,3.90
2022-12-24T23:21:05.536Z,3.90
2022-12-24T23:23:37.426Z,4.00
2022-12-24T23:26:07.213Z,4.00
2022-12-24T23:28:35.782Z,4.00
2022-12-24T23:31:05.438Z,3.90
2022-12-24T23:33:34.394Z,3.90
2022-12-24T23:36:03.625Z,4.00
2022-12-24T23:38:32.384Z,3.90
2022-12-24T23:41:05.181Z,3.90
2022-12-24T23:43:34.915Z,3.90
2022-12-24T23:46:03.991Z,3.90
2022-12-24T23:48:32.696Z,3.90
2022-12-24T23:51:09.022Z,3.90
2022-12-24T23:53:37.761Z,3.90
2022-12-24T23:56:11.101Z,3.90
2022-12-24T23:58:41.079Z,3.90
